Banff, Canada
Current Conditions -  °F | °C
As of 5:00 AM on Wednesday 28 Jan 2015 (Local Time) from CYBW Reporting Station
Overcast Overcast  
Wind Chill: 26°   Ceiling: 1800
Heat Index: 32°   Visibility: 9mi
Dew Point: 30°   Wind: 7mph
Humidity: 93%   Direction: 250°WSW
Pressure: 30.06"   Gusts: NA
Location:  51.18°N, 115.57°W
Report Text: CYBW 281200Z AUTO 25006KT 9SM OVC018 M00/M01 A3006 RMK SLP210
Loading
Personal Weather Stations






























Interactive Weather Map New forecast layout! Learn more

10-Day Weather Forecast

Advertisements
Track Severe Weather on mobile